sensor_id;sensor_type;location;lat;lon;timestamp;temperature;humidity
35559;DHT22;21661;50.794;-1.066;2024-01-16T00:02:17;2.30;99.90
35559;DHT22;21661;50.794;-1.066;2024-01-16T00:04:43;2.20;99.90
35559;DHT22;21661;50.794;-1.066;2024-01-16T00:07:09;2.20;99.90
35559;DHT22;21661;50.794;-1.066;2024-01-16T00:09:35;2.30;99.90
35559;DHT22;21661;50.794;-1.066;2024-01-16T00:12:02;2.30;99.90
35559;DHT22;21661;50.794;-1.066;2024-01-16T00:14:28;2.30;99.90
35559;DHT22;21661;50.794;-1.066;2024-01-16T00:16:53;2.20;99.90
35559;DHT22;21661;50.794;-1.066;2024-01-16T00:19:19;2.10;99.90
35559;DHT22;21661;50.794;-1.066;2024-01-16T00:21:45;2.00;99.90
35559;DHT22;21661;50.794;-1.066;2024-01-16T00:24:14;1.90;99.90
35559;DHT22;21661;50.794;-1.066;2024-01-16T00:26:40;1.90;99.90
35559;DHT22;21661;50.794;-1.066;2024-01-16T00:29:06;1.90;99.90
35559;DHT22;21661;50.794;-1.066;2024-01-16T00:31:31;1.80;99.90
35559;DHT22;21661;50.794;-1.066;2024-01-16T00:33:57;1.70;99.90
35559;DHT22;21661;50.794;-1.066;2024-01-16T00:36:23;1.70;99.90
35559;DHT22;21661;50.794;-1.066;2024-01-16T00:38:48;1.70;99.90
35559;DHT22;21661;50.794;-1.066;2024-01-16T00:41:15;1.60;99.90
35559;DHT22;21661;50.794;-1.066;2024-01-16T00:43:43;1.70;99.90
35559;DHT22;21661;50.794;-1.066;2024-01-16T00:46:08;1.60;99.90
35559;DHT22;21661;50.794;-1.066;2024-01-16T00:48:34;1.60;99.90
35559;DHT22;21661;50.794;-1.066;2024-01-16T00:51:00;1.60;99.90
35559;DHT22;21661;50.794;-1.066;2024-01-16T00:53:26;1.70;99.90
35559;DHT22;21661;50.794;-1.066;2024-01-16T00:55:52;1.80;99.90
35559;DHT22;21661;50.794;-1.066;2024-01-16T00:58:22;1.90;99.90
35559;DHT22;21661;50.794;-1.066;2024-01-16T01:00:48;1.90;99.90
35559;DHT22;21661;50.794;-1.066;2024-01-16T01:03:14;1.80;99.90
35559;DHT22;21661;50.794;-1.066;2024-01-16T01:05:40;1.90;99.90
35559;DHT22;21661;50.794;-1.066;2024-01-16T01:08:06;1.90;99.90
35559;DHT22;21661;50.794;-1.066;2024-01-16T01:10:32;1.90;99.90
35559;DHT22;21661;50.794;-1.066;2024-01-16T01:12:57;2.00;99.90
35559;DHT22;21661;50.794;-1.066;2024-01-16T01:15:23;2.00;99.90
35559;DHT22;21661;50.794;-1.066;2024-01-16T01:17:49;2.00;99.90
35559;DHT22;21661;50.794;-1.066;2024-01-16T01:20:16;2.10;99.90
35559;DHT22;21661;50.794;-1.066;2024-01-16T01:22:43;2.10;99.90
35559;DHT22;21661;50.794;-1.066;2024-01-16T01:25:09;2.20;99.90
35559;DHT22;21661;50.794;-1.066;2024-01-16T01:27:36;2.20;99.90
35559;DHT22;21661;50.794;-1.066;2024-01-16T01:30:01;2.10;99.90
35559;DHT22;21661;50.794;-1.066;2024-01-16T01:32:27;2.20;99.90
35559;DHT22;21661;50.794;-1.066;2024-01-16T01:34:53;2.20;99.90
35559;DHT22;21661;50.794;-1.066;2024-01-16T01:37:18;2.20;99.90
35559;DHT22;21661;50.794;-1.066;2024-01-16T01:39:44;2.10;99.90
35559;DHT22;21661;50.794;-1.066;2024-01-16T01:42:10;2.20;99.90
35559;DHT22;21661;50.794;-1.066;2024-01-16T01:44:35;2.20;99.90
35559;DHT22;21661;50.794;-1.066;2024-01-16T01:47:01;2.20;99.90
35559;DHT22;21661;50.794;-1.066;2024-01-16T01:49:27;2.20;99.90
35559;DHT22;21661;50.794;-1.066;2024-01-16T01:51:54;2.30;99.90
35559;DHT22;21661;50.794;-1.066;2024-01-16T01:54:21;2.20;99.90
35559;DHT22;21661;50.794;-1.066;2024-01-16T01:56:48;2.30;99.90
35559;DHT22;21661;50.794;-1.066;2024-01-16T01:59:15;2.20;99.90
35559;DHT22;21661;50.794;-1.066;2024-01-16T02:01:42;2.10;99.90
35559;DHT22;21661;50.794;-1.066;2024-01-16T02:04:08;2.00;99.90
35559;DHT22;21661;50.794;-1.066;2024-01-16T02:06:34;2.00;99.90
35559;DHT22;21661;50.794;-1.066;2024-01-16T02:09:00;2.00;99.90
35559;DHT22;21661;50.794;-1.066;2024-01-16T02:11:26;2.10;99.90
35559;DHT22;21661;50.794;-1.066;2024-01-16T02:13:52;2.20;99.90
35559;DHT22;21661;50.794;-1.066;2024-01-16T02:16:19;2.20;99.90
35559;DHT22;21661;50.794;-1.066;2024-01-16T02:18:45;2.20;99.90
35559;DHT22;21661;50.794;-1.066;2024-01-16T02:21:14;2.10;99.90
35559;DHT22;21661;50.794;-1.066;2024-01-16T02:23:42;2.00;99.90
35559;DHT22;21661;50.794;-1.066;2024-01-16T02:26:08;2.10;99.90
35559;DHT22;21661;50.794;-1.066;2024-01-16T02:28:34;2.10;99.90
35559;DHT22;21661;50.794;-1.066;2024-01-16T02:30:59;2.10;99.90
35559;DHT22;21661;50.794;-1.066;2024-01-16T02:33:25;2.20;99.90
35559;DHT22;21661;50.794;-1.066;2024-01-16T02:35:50;2.10;99.90
35559;DHT22;21661;50.794;-1.066;2024-01-16T02:38:16;2.00;99.90
35559;DHT22;21661;50.794;-1.066;2024-01-16T02:40:42;2.00;99.90
35559;DHT22;21661;50.794;-1.066;2024-01-16T02:43:07;2.00;99.90
35559;DHT22;21661;50.794;-1.066;2024-01-16T02:45:33;1.90;99.90
35559;DHT22;21661;50.794;-1.066;2024-01-16T02:47:59;1.90;99.90
35559;DHT22;21661;50.794;-1.066;2024-01-16T02:50:25;1.90;99.90
35559;DHT22;21661;50.794;-1.066;2024-01-16T02:52:51;1.80;99.90
35559;DHT22;21661;50.794;-1.066;2024-01-16T02:55:16;1.70;99.90
35559;DHT22;21661;50.794;-1.066;2024-01-16T02:57:42;1.70;99.90
35559;DHT22;21661;50.794;-1.066;2024-01-16T03:00:08;1.80;99.90
35559;DHT22;21661;50.794;-1.066;2024-01-16T03:02:35;1.80;99.90
35559;DHT22;21661;50.794;-1.066;2024-01-16T03:05:03;1.80;99.90
35559;DHT22;21661;50.794;-1.066;2024-01-16T03:07:30;1.70;99.90
35559;DHT22;21661;50.794;-1.066;2024-01-16T03:09:56;1.80;99.90
35559;DHT22;21661;50.794;-1.066;2024-01-16T03:12:22;1.80;99.90
35559;DHT22;21661;50.794;-1.066;2024-01-16T03:14:47;1.80;99.90
35559;DHT22;21661;50.794;-1.066;2024-01-16T03:17:13;1.90;99.90
35559;DHT22;21661;50.794;-1.066;2024-01-16T03:19:38;2.00;99.90
35559;DHT22;21661;50.794;-1.066;2024-01-16T03:22:04;2.00;99.90
35559;DHT22;21661;50.794;-1.066;2024-01-16T03:24:30;2.00;99.90
35559;DHT22;21661;50.794;-1.066;2024-01-16T03:26:55;2.00;99.90
35559;DHT22;21661;50.794;-1.066;2024-01-16T03:29:21;1.90;99.90
35559;DHT22;21661;50.794;-1.066;2024-01-16T03:31:47;1.90;99.90
35559;DHT22;21661;50.794;-1.066;2024-01-16T03:34:13;2.00;99.90
35559;DHT22;21661;50.794;-1.066;2024-01-16T03:36:39;1.90;99.90
35559;DHT22;21661;50.794;-1.066;2024-01-16T03:39:04;1.80;99.90
35559;DHT22;21661;50.794;-1.066;2024-01-16T03:41:31;1.80;99.90
35559;DHT22;21661;50.794;-1.066;2024-01-16T03:43:57;1.80;99.90
35559;DHT22;21661;50.794;-1.066;2024-01-16T03:46:23;1.70;99.90
35559;DHT22;21661;50.794;-1.066;2024-01-16T03:48:48;1.70;99.90
35559;DHT22;21661;50.794;-1.066;2024-01-16T03:51:14;1.60;99.90
35559;DHT22;21661;50.794;-1.066;2024-01-16T03:53:45;1.60;99.90
35559;DHT22;21661;50.794;-1.066;2024-01-16T03:56:11;1.60;99.90
35559;DHT22;21661;50.794;-1.066;2024-01-16T03:58:37;1.80;99.90
35559;DHT22;21661;50.794;-1.066;2024-01-16T04:01:03;1.70;99.90
35559;DHT22;21661;50.794;-1.066;2024-01-16T04:03:29;1.80;99.90
35559;DHT22;21661;50.794;-1.066;2024-01-16T04:05:54;1.70;99.90
35559;DHT22;21661;50.794;-1.066;2024-01-16T04:08:20;1.70;99.90
35559;DHT22;21661;50.794;-1.066;2024-01-16T04:10:46;1.60;99.90
35559;DHT22;21661;50.794;-1.066;2024-01-16T04:13:11;1.60;99.90
35559;DHT22;21661;50.794;-1.066;2024-01-16T04:15:40;1.70;99.90
35559;DHT22;21661;50.794;-1.066;2024-01-16T04:18:06;1.60;99.90
35559;DHT22;21661;50.794;-1.066;2024-01-16T04:20:32;1.60;99.90
35559;DHT22;21661;50.794;-1.066;2024-01-16T04:22:58;1.70;99.90
35559;DHT22;21661;50.794;-1.066;2024-01-16T04:25:23;1.80;99.90
35559;DHT22;21661;50.794;-1.066;2024-01-16T04:27:49;1.70;99.90
35559;DHT22;21661;50.794;-1.066;2024-01-16T04:30:16;1.70;99.90
35559;DHT22;21661;50.794;-1.066;2024-01-16T04:32:41;1.80;99.90
35559;DHT22;21661;50.794;-1.066;2024-01-16T04:35:07;1.80;99.90
35559;DHT22;21661;50.794;-1.066;2024-01-16T04:37:33;1.90;99.90
35559;DHT22;21661;50.794;-1.066;2024-01-16T04:39:59;2.00;99.90
35559;DHT22;21661;50.794;-1.066;2024-01-16T04:42:25;1.90;99.90
35559;DHT22;21661;50.794;-1.066;2024-01-16T04:44:51;1.90;99.90
35559;DHT22;21661;50.794;-1.066;2024-01-16T04:47:16;1.80;99.90
35559;DHT22;21661;50.794;-1.066;2024-01-16T04:49:44;1.70;99.90
35559;DHT22;21661;50.794;-1.066;2024-01-16T04:52:09;1.50;99.90
35559;DHT22;21661;50.794;-1.066;2024-01-16T04:54:35;1.50;99.90
35559;DHT22;21661;50.794;-1.066;2024-01-16T04:57:00;1.60;99.90
35559;DHT22;21661;50.794;-1.066;2024-01-16T04:59:26;1.60;99.90
35559;DHT22;21661;50.794;-1.066;2024-01-16T05:01:52;1.50;99.90
35559;DHT22;21661;50.794;-1.066;2024-01-16T05:04:17;1.60;99.90
35559;DHT22;21661;50.794;-1.066;2024-01-16T05:06:43;1.70;99.90
35559;DHT22;21661;50.794;-1.066;2024-01-16T05:09:09;1.70;99.90
35559;DHT22;21661;50.794;-1.066;2024-01-16T05:11:35;1.60;99.90
35559;DHT22;21661;50.794;-1.066;2024-01-16T05:14:01;1.50;99.90
35559;DHT22;21661;50.794;-1.066;2024-01-16T05:16:27;1.50;99.90
35559;DHT22;21661;50.794;-1.066;2024-01-16T05:18:53;1.50;99.90
35559;DHT22;21661;50.794;-1.066;2024-01-16T05:21:20;1.60;99.90
35559;DHT22;21661;50.794;-1.066;2024-01-16T05:23:46;1.50;99.90
35559;DHT22;21661;50.794;-1.066;2024-01-16T05:26:12;1.50;99.90
35559;DHT22;21661;50.794;-1.066;2024-01-16T05:28:41;1.30;99.90
35559;DHT22;21661;50.794;-1.066;2024-01-16T05:31:07;1.20;99.90
35559;DHT22;21661;50.794;-1.066;2024-01-16T05:33:32;1.10;99.90
35559;DHT22;21661;50.794;-1.066;2024-01-16T05:35:58;1.10;99.90
35559;DHT22;21661;50.794;-1.066;2024-01-16T05:38:24;1.20;99.90
35559;DHT22;21661;50.794;-1.066;2024-01-16T05:40:49;1.30;99.90
35559;DHT22;21661;50.794;-1.066;2024-01-16T05:43:15;1.40;99.90
35559;DHT22;21661;50.794;-1.066;2024-01-16T05:45:40;1.40;99.90
35559;DHT22;21661;50.794;-1.066;2024-01-16T05:48:06;1.20;99.90
35559;DHT22;21661;50.794;-1.066;2024-01-16T05:50:34;1.20;99.90
35559;DHT22;21661;50.794;-1.066;2024-01-16T05:53:00;1.20;99.90
35559;DHT22;21661;50.794;-1.066;2024-01-16T05:55:25;1.20;99.90
35559;DHT22;21661;50.794;-1.066;2024-01-16T05:57:51;1.30;99.90
35559;DHT22;21661;50.794;-1.066;2024-01-16T06:00:17;1.30;99.90
35559;DHT22;21661;50.794;-1.066;2024-01-16T06:02:44;1.20;99.90
35559;DHT22;21661;50.794;-1.066;2024-01-16T06:05:10;1.10;99.90
35559;DHT22;21661;50.794;-1.066;2024-01-16T06:07:35;1.20;99.90
35559;DHT22;21661;50.794;-1.066;2024-01-16T06:10:01;1.20;99.90
35559;DHT22;21661;50.794;-1.066;2024-01-16T06:12:27;1.30;99.90
35559;DHT22;21661;50.794;-1.066;2024-01-16T06:14:53;1.30;99.90
35559;DHT22;21661;50.794;-1.066;2024-01-16T06:17:18;1.30;99.90
35559;DHT22;21661;50.794;-1.066;2024-01-16T06:19:44;1.40;99.90
35559;DHT22;21661;50.794;-1.066;2024-01-16T06:22:09;1.40;99.90
35559;DHT22;21661;50.794;-1.066;2024-01-16T06:24:36;1.40;99.90
35559;DHT22;21661;50.794;-1.066;2024-01-16T06:27:06;1.40;99.90
35559;DHT22;21661;50.794;-1.066;2024-01-16T06:29:32;1.20;99.90
35559;DHT22;21661;50.794;-1.066;2024-01-16T06:31:58;1.10;99.90
35559;DHT22;21661;50.794;-1.066;2024-01-16T06:34:24;1.00;99.90
35559;DHT22;21661;50.794;-1.066;2024-01-16T06:36:50;0.90;99.90
35559;DHT22;21661;50.794;-1.066;2024-01-16T06:39:15;0.90;99.90
35559;DHT22;21661;50.794;-1.066;2024-01-16T06:41:41;0.90;99.90
35559;DHT22;21661;50.794;-1.066;2024-01-16T06:44:07;1.00;99.90
35559;DHT22;21661;50.794;-1.066;2024-01-16T06:46:33;1.10;99.90
35559;DHT22;21661;50.794;-1.066;2024-01-16T06:49:00;1.10;99.90
35559;DHT22;21661;50.794;-1.066;2024-01-16T06:51:27;1.10;99.90
35559;DHT22;21661;50.794;-1.066;2024-01-16T06:53:52;1.00;99.90
35559;DHT22;21661;50.794;-1.066;2024-01-16T06:56:18;1.10;99.90
35559;DHT22;21661;50.794;-1.066;2024-01-16T06:58:44;1.00;99.90
35559;DHT22;21661;50.794;-1.066;2024-01-16T07:01:10;0.90;99.90
35559;DHT22;21661;50.794;-1.066;2024-01-16T07:03:36;1.00;99.90
35559;DHT22;21661;50.794;-1.066;2024-01-16T07:06:02;0.90;99.90
35559;DHT22;21661;50.794;-1.066;2024-01-16T07:08:28;1.00;99.90
35559;DHT22;21661;50.794;-1.066;2024-01-16T07:10:53;1.00;99.90
35559;DHT22;21661;50.794;-1.066;2024-01-16T07:13:19;1.10;99.90
35559;DHT22;21661;50.794;-1.066;2024-01-16T07:15:45;1.10;99.90
35559;DHT22;21661;50.794;-1.066;2024-01-16T07:18:11;1.20;99.90
35559;DHT22;21661;50.794;-1.066;2024-01-16T07:20:36;1.10;99.90
35559;DHT22;21661;50.794;-1.066;2024-01-16T07:23:02;1.10;99.90
35559;DHT22;21661;50.794;-1.066;2024-01-16T07:25:28;1.10;99.90
35559;DHT22;21661;50.794;-1.066;2024-01-16T07:27:53;1.20;99.90
35559;DHT22;21661;50.794;-1.066;2024-01-16T07:30:19;1.20;99.90
35559;DHT22;21661;50.794;-1.066;2024-01-16T07:32:45;1.30;99.90
35559;DHT22;21661;50.794;-1.066;2024-01-16T07:35:11;1.30;99.90
35559;DHT22;21661;50.794;-1.066;2024-01-16T07:37:36;1.40;99.90
35559;DHT22;21661;50.794;-1.066;2024-01-16T07:40:03;1.40;99.90
35559;DHT22;21661;50.794;-1.066;2024-01-16T07:42:31;1.40;99.90
35559;DHT22;21661;50.794;-1.066;2024-01-16T07:45:01;1.40;99.90
35559;DHT22;21661;50.794;-1.066;2024-01-16T07:47:33;1.40;99.90
35559;DHT22;21661;50.794;-1.066;2024-01-16T07:49:59;1.20;99.90
35559;DHT22;21661;50.794;-1.066;2024-01-16T07:52:26;1.10;99.90
35559;DHT22;21661;50.794;-1.066;2024-01-16T07:54:52;1.10;99.90
35559;DHT22;21661;50.794;-1.066;2024-01-16T07:57:18;1.10;99.90
35559;DHT22;21661;50.794;-1.066;2024-01-16T07:59:44;1.10;99.90
35559;DHT22;21661;50.794;-1.066;2024-01-16T08:02:10;1.00;99.90
35559;DHT22;21661;50.794;-1.066;2024-01-16T08:04:35;1.00;99.90
35559;DHT22;21661;50.794;-1.066;2024-01-16T08:07:01;0.90;99.90
35559;DHT22;21661;50.794;-1.066;2024-01-16T08:09:27;0.90;99.90
35559;DHT22;21661;50.794;-1.066;2024-01-16T08:11:53;0.90;99.90
35559;DHT22;21661;50.794;-1.066;2024-01-16T08:14:18;0.90;99.90
35559;DHT22;21661;50.794;-1.066;2024-01-16T08:16:44;0.90;99.90
35559;DHT22;21661;50.794;-1.066;2024-01-16T08:19:10;0.80;99.90
35559;DHT22;21661;50.794;-1.066;2024-01-16T08:21:35;0.80;99.90
35559;DHT22;21661;50.794;-1.066;2024-01-16T08:24:01;0.90;99.90
35559;DHT22;21661;50.794;-1.066;2024-01-16T08:26:27;0.90;99.90
35559;DHT22;21661;50.794;-1.066;2024-01-16T08:28:54;0.80;99.90
35559;DHT22;21661;50.794;-1.066;2024-01-16T08:31:19;0.80;99.90
35559;DHT22;21661;50.794;-1.066;2024-01-16T08:33:45;0.80;99.90
35559;DHT22;21661;50.794;-1.066;2024-01-16T08:36:11;0.80;99.90
35559;DHT22;21661;50.794;-1.066;2024-01-16T08:38:37;0.70;99.90
35559;DHT22;21661;50.794;-1.066;2024-01-16T08:41:02;0.70;99.90
35559;DHT22;21661;50.794;-1.066;2024-01-16T08:43:37;0.70;99.90
35559;DHT22;21661;50.794;-1.066;2024-01-16T08:46:02;0.70;99.90
35559;DHT22;21661;50.794;-1.066;2024-01-16T08:48:29;0.60;99.90
35559;DHT22;21661;50.794;-1.066;2024-01-16T08:50:55;0.70;99.90
35559;DHT22;21661;50.794;-1.066;2024-01-16T08:53:20;0.70;99.90
35559;DHT22;21661;50.794;-1.066;2024-01-16T08:55:48;0.70;99.90
35559;DHT22;21661;50.794;-1.066;2024-01-16T08:58:14;0.70;99.90
35559;DHT22;21661;50.794;-1.066;2024-01-16T09:00:40;0.80;99.90
35559;DHT22;21661;50.794;-1.066;2024-01-16T09:03:06;0.80;99.90
35559;DHT22;21661;50.794;-1.066;2024-01-16T09:05:33;0.90;99.90
35559;DHT22;21661;50.794;-1.066;2024-01-16T09:08:01;0.90;99.90
35559;DHT22;21661;50.794;-1.066;2024-01-16T09:10:28;1.00;99.90
35559;DHT22;21661;50.794;-1.066;2024-01-16T09:12:55;1.00;99.90
35559;DHT22;21661;50.794;-1.066;2024-01-16T09:15:20;1.10;99.90
35559;DHT22;21661;50.794;-1.066;2024-01-16T09:17:46;1.20;99.90
35559;DHT22;21661;50.794;-1.066;2024-01-16T09:20:12;1.30;99.90
35559;DHT22;21661;50.794;-1.066;2024-01-16T09:22:37;1.30;99.90
35559;DHT22;21661;50.794;-1.066;2024-01-16T09:25:03;1.40;99.90
35559;DHT22;21661;50.794;-1.066;2024-01-16T09:27:29;1.40;99.90
35559;DHT22;21661;50.794;-1.066;2024-01-16T09:29:55;1.40;99.90
35559;DHT22;21661;50.794;-1.066;2024-01-16T09:32:20;1.50;99.90
35559;DHT22;21661;50.794;-1.066;2024-01-16T09:34:46;1.50;99.90
35559;DHT22;21661;50.794;-1.066;2024-01-16T09:37:12;1.50;99.90
35559;DHT22;21661;50.794;-1.066;2024-01-16T09:39:40;1.70;99.90
35559;DHT22;21661;50.794;-1.066;2024-01-16T09:42:06;1.70;99.90
35559;DHT22;21661;50.794;-1.066;2024-01-16T09:44:32;1.60;99.90
35559;DHT22;21661;50.794;-1.066;2024-01-16T09:47:01;1.70;99.90
35559;DHT22;21661;50.794;-1.066;2024-01-16T09:49:29;1.80;99.90
35559;DHT22;21661;50.794;-1.066;2024-01-16T09:51:55;1.80;99.90
35559;DHT22;21661;50.794;-1.066;2024-01-16T09:54:24;1.90;99.90
35559;DHT22;21661;50.794;-1.066;2024-01-16T09:56:53;2.00;99.90
35559;DHT22;21661;50.794;-1.066;2024-01-16T09:59:21;2.00;99.90
35559;DHT22;21661;50.794;-1.066;2024-01-16T10:01:49;2.10;99.90
35559;DHT22;21661;50.794;-1.066;2024-01-16T10:04:17;2.10;99.90
35559;DHT22;21661;50.794;-1.066;2024-01-16T10:06:45;2.20;99.90
35559;DHT22;21661;50.794;-1.066;2024-01-16T10:09:15;2.20;99.90
35559;DHT22;21661;50.794;-1.066;2024-01-16T10:11:41;2.30;99.90
35559;DHT22;21661;50.794;-1.066;2024-01-16T10:14:08;2.30;99.90
35559;DHT22;21661;50.794;-1.066;2024-01-16T10:16:57;2.30;99.90
35559;DHT22;21661;50.794;-1.066;2024-01-16T10:19:23;2.40;99.90
35559;DHT22;21661;50.794;-1.066;2024-01-16T10:21:50;2.30;99.90
35559;DHT22;21661;50.794;-1.066;2024-01-16T10:24:16;2.40;99.90
35559;DHT22;21661;50.794;-1.066;2024-01-16T10:26:41;2.50;99.90
35559;DHT22;21661;50.794;-1.066;2024-01-16T10:29:07;2.50;99.90
35559;DHT22;21661;50.794;-1.066;2024-01-16T10:31:34;2.50;99.90
35559;DHT22;21661;50.794;-1.066;2024-01-16T10:34:00;2.50;99.90
35559;DHT22;21661;50.794;-1.066;2024-01-16T10:36:26;2.60;99.90
35559;DHT22;21661;50.794;-1.066;2024-01-16T10:38:51;2.60;99.90
35559;DHT22;21661;50.794;-1.066;2024-01-16T10:41:23;2.70;99.90
35559;DHT22;21661;50.794;-1.066;2024-01-16T10:44:05;2.80;99.90
35559;DHT22;21661;50.794;-1.066;2024-01-16T10:46:35;2.80;99.90
35559;DHT22;21661;50.794;-1.066;2024-01-16T10:49:03;2.90;99.90
35559;DHT22;21661;50.794;-1.066;2024-01-16T10:51:30;2.90;99.90
35559;DHT22;21661;50.794;-1.066;2024-01-16T10:54:02;2.90;99.90
35559;DHT22;21661;50.794;-1.066;2024-01-16T10:56:31;3.00;99.90
35559;DHT22;21661;50.794;-1.066;2024-01-16T10:59:31;3.00;99.90
35559;DHT22;21661;50.794;-1.066;2024-01-16T11:02:02;3.00;99.90
35559;DHT22;21661;50.794;-1.066;2024-01-16T11:04:30;3.00;99.90
35559;DHT22;21661;50.794;-1.066;2024-01-16T11:06:56;3.00;99.90
35559;DHT22;21661;50.794;-1.066;2024-01-16T11:09:24;3.10;99.90
35559;DHT22;21661;50.794;-1.066;2024-01-16T11:11:53;3.10;99.90
35559;DHT22;21661;50.794;-1.066;2024-01-16T11:14:20;3.20;99.90
35559;DHT22;21661;50.794;-1.066;2024-01-16T11:16:48;3.20;99.90
35559;DHT22;21661;50.794;-1.066;2024-01-16T11:19:15;3.30;99.90
35559;DHT22;21661;50.794;-1.066;2024-01-16T11:21:42;3.30;99.90
35559;DHT22;21661;50.794;-1.066;2024-01-16T11:24:08;3.40;99.90
35559;DHT22;21661;50.794;-1.066;2024-01-16T11:26:34;3.50;99.90
35559;DHT22;21661;50.794;-1.066;2024-01-16T11:31:53;3.50;99.90
35559;DHT22;21661;50.794;-1.066;2024-01-16T11:37:13;3.70;99.90
35559;DHT22;21661;50.794;-1.066;2024-01-16T11:39:39;3.60;99.90
35559;DHT22;21661;50.794;-1.066;2024-01-16T11:42:08;3.70;99.90
35559;DHT22;21661;50.794;-1.066;2024-01-16T11:44:47;3.70;99.90
35559;DHT22;21661;50.794;-1.066;2024-01-16T11:47:23;3.80;99.90
35559;DHT22;21661;50.794;-1.066;2024-01-16T11:49:51;3.80;99.90
35559;DHT22;21661;50.794;-1.066;2024-01-16T11:52:39;3.90;99.90
35559;DHT22;21661;50.794;-1.066;2024-01-16T11:55:25;3.90;99.90
35559;DHT22;21661;50.794;-1.066;2024-01-16T11:58:02;4.10;99.90
35559;DHT22;21661;50.794;-1.066;2024-01-16T12:00:32;4.10;99.90
35559;DHT22;21661;50.794;-1.066;2024-01-16T12:03:04;4.30;99.90
35559;DHT22;21661;50.794;-1.066;2024-01-16T12:05:31;4.30;99.90
35559;DHT22;21661;50.794;-1.066;2024-01-16T12:07:57;4.40;99.90
35559;DHT22;21661;50.794;-1.066;2024-01-16T12:10:24;4.40;99.90
35559;DHT22;21661;50.794;-1.066;2024-01-16T12:12:50;4.40;99.90
35559;DHT22;21661;50.794;-1.066;2024-01-16T12:15:20;4.40;99.90
35559;DHT22;21661;50.794;-1.066;2024-01-16T12:18:02;4.50;99.90
35559;DHT22;21661;50.794;-1.066;2024-01-16T12:20:33;4.60;99.90
35559;DHT22;21661;50.794;-1.066;2024-01-16T12:23:01;4.60;99.90
35559;DHT22;21661;50.794;-1.066;2024-01-16T12:25:32;4.60;99.90
35559;DHT22;21661;50.794;-1.066;2024-01-16T12:28:06;4.60;99.90
35559;DHT22;21661;50.794;-1.066;2024-01-16T12:30:33;4.70;99.90
35559;DHT22;21661;50.794;-1.066;2024-01-16T12:33:10;4.60;99.90
35559;DHT22;21661;50.794;-1.066;2024-01-16T12:35:37;4.60;99.90
35559;DHT22;21661;50.794;-1.066;2024-01-16T12:38:06;4.60;99.90
35559;DHT22;21661;50.794;-1.066;2024-01-16T12:40:35;4.70;99.90
35559;DHT22;21661;50.794;-1.066;2024-01-16T12:43:03;4.80;99.90
35559;DHT22;21661;50.794;-1.066;2024-01-16T12:45:29;4.80;99.90
35559;DHT22;21661;50.794;-1.066;2024-01-16T12:47:55;4.80;99.90
35559;DHT22;21661;50.794;-1.066;2024-01-16T12:50:24;4.80;99.90
35559;DHT22;21661;50.794;-1.066;2024-01-16T12:53:04;4.80;99.90
35559;DHT22;21661;50.794;-1.066;2024-01-16T12:55:39;4.80;99.90
35559;DHT22;21661;50.794;-1.066;2024-01-16T12:58:15;4.80;99.90
35559;DHT22;21661;50.794;-1.066;2024-01-16T13:00:47;4.80;99.90
35559;DHT22;21661;50.794;-1.066;2024-01-16T13:03:21;4.90;99.90
35559;DHT22;21661;50.794;-1.066;2024-01-16T13:06:01;4.80;99.90
35559;DHT22;21661;50.794;-1.066;2024-01-16T13:08:27;4.80;99.90
35559;DHT22;21661;50.794;-1.066;2024-01-16T13:11:22;4.90;99.90
35559;DHT22;21661;50.794;-1.066;2024-01-16T13:13:47;4.90;99.90
35559;DHT22;21661;50.794;-1.066;2024-01-16T13:16:14;4.90;99.90
35559;DHT22;21661;50.794;-1.066;2024-01-16T13:18:40;4.90;99.90
35559;DHT22;21661;50.794;-1.066;2024-01-16T13:21:06;4.90;99.90
35559;DHT22;21661;50.794;-1.066;2024-01-16T13:23:32;4.90;99.90
35559;DHT22;21661;50.794;-1.066;2024-01-16T13:25:57;4.90;99.90
35559;DHT22;21661;50.794;-1.066;2024-01-16T13:28:28;4.90;99.90
35559;DHT22;21661;50.794;-1.066;2024-01-16T13:30:55;5.00;99.90
35559;DHT22;21661;50.794;-1.066;2024-01-16T13:33:23;5.00;99.90
35559;DHT22;21661;50.794;-1.066;2024-01-16T13:35:52;4.90;99.90
35559;DHT22;21661;50.794;-1.066;2024-01-16T13:38:20;5.00;99.90
35559;DHT22;21661;50.794;-1.066;2024-01-16T13:40:46;5.10;99.90
35559;DHT22;21661;50.794;-1.066;2024-01-16T13:43:12;5.00;99.90
35559;DHT22;21661;50.794;-1.066;2024-01-16T13:45:38;5.00;99.90
35559;DHT22;21661;50.794;-1.066;2024-01-16T13:48:05;5.10;99.90
35559;DHT22;21661;50.794;-1.066;2024-01-16T13:50:33;5.10;99.90
35559;DHT22;21661;50.794;-1.066;2024-01-16T13:53:00;5.10;99.90
35559;DHT22;21661;50.794;-1.066;2024-01-16T13:55:27;5.10;99.90
35559;DHT22;21661;50.794;-1.066;2024-01-16T13:57:53;5.10;99.90
35559;DHT22;21661;50.794;-1.066;2024-01-16T14:00:18;5.20;99.90
35559;DHT22;21661;50.794;-1.066;2024-01-16T14:02:46;5.20;99.90
35559;DHT22;21661;50.794;-1.066;2024-01-16T14:05:17;5.20;99.90
35559;DHT22;21661;50.794;-1.066;2024-01-16T14:07:50;5.30;99.90
35559;DHT22;21661;50.794;-1.066;2024-01-16T14:10:17;5.30;99.90
35559;DHT22;21661;50.794;-1.066;2024-01-16T14:12:44;5.30;99.90
35559;DHT22;21661;50.794;-1.066;2024-01-16T14:15:11;5.40;99.90
35559;DHT22;21661;50.794;-1.066;2024-01-16T14:17:56;5.40;99.90
35559;DHT22;21661;50.794;-1.066;2024-01-16T14:20:23;5.50;99.90
35559;DHT22;21661;50.794;-1.066;2024-01-16T14:22:59;5.50;99.90
35559;DHT22;21661;50.794;-1.066;2024-01-16T14:25:25;5.50;99.90
35559;DHT22;21661;50.794;-1.066;2024-01-16T14:28:02;5.60;99.90
35559;DHT22;21661;50.794;-1.066;2024-01-16T14:30:35;5.50;99.90
35559;DHT22;21661;50.794;-1.066;2024-01-16T14:33:04;5.50;99.90
35559;DHT22;21661;50.794;-1.066;2024-01-16T14:35:32;5.50;99.90
35559;DHT22;21661;50.794;-1.066;2024-01-16T14:37:58;5.50;99.90
35559;DHT22;21661;50.794;-1.066;2024-01-16T14:40:24;5.50;99.90
35559;DHT22;21661;50.794;-1.066;2024-01-16T14:42:54;5.50;99.90
35559;DHT22;21661;50.794;-1.066;2024-01-16T14:45:21;5.60;99.90
35559;DHT22;21661;50.794;-1.066;2024-01-16T14:47:47;5.60;99.90
35559;DHT22;21661;50.794;-1.066;2024-01-16T14:50:15;5.60;99.90
35559;DHT22;21661;50.794;-1.066;2024-01-16T14:52:46;5.50;99.90
35559;DHT22;21661;50.794;-1.066;2024-01-16T14:55:12;5.60;99.90
35559;DHT22;21661;50.794;-1.066;2024-01-16T14:57:38;5.60;99.90
35559;DHT22;21661;50.794;-1.066;2024-01-16T15:00:13;5.60;99.90
35559;DHT22;21661;50.794;-1.066;2024-01-16T15:02:51;5.50;99.90
35559;DHT22;21661;50.794;-1.066;2024-01-16T15:05:17;5.50;99.90
35559;DHT22;21661;50.794;-1.066;2024-01-16T15:07:47;5.50;99.90
35559;DHT22;21661;50.794;-1.066;2024-01-16T15:10:12;5.50;99.90
35559;DHT22;21661;50.794;-1.066;2024-01-16T15:12:40;5.40;99.90
35559;DHT22;21661;50.794;-1.066;2024-01-16T15:15:10;5.50;99.90
35559;DHT22;21661;50.794;-1.066;2024-01-16T15:17:37;5.40;99.90
35559;DHT22;21661;50.794;-1.066;2024-01-16T15:20:03;5.40;99.90
35559;DHT22;21661;50.794;-1.066;2024-01-16T15:22:43;5.30;99.90
35559;DHT22;21661;50.794;-1.066;2024-01-16T15:25:12;5.30;99.90
35559;DHT22;21661;50.794;-1.066;2024-01-16T15:27:42;5.30;99.90
35559;DHT22;21661;50.794;-1.066;2024-01-16T15:30:09;5.30;99.90
35559;DHT22;21661;50.794;-1.066;2024-01-16T15:32:36;5.30;99.90
35559;DHT22;21661;50.794;-1.066;2024-01-16T15:35:03;5.30;99.90
35559;DHT22;21661;50.794;-1.066;2024-01-16T15:37:35;5.20;99.90